createdAt,value
2018-12-07T00:02:24.783Z,27.97
2018-12-07T00:04:54.278Z,34.80
2018-12-07T00:07:23.867Z,35.57
2018-12-07T00:09:58.473Z,33.77
2018-12-07T00:12:28.953Z,32.63
2018-12-07T00:14:58.238Z,36.60
2018-12-07T00:17:29.053Z,27.23
2018-12-07T00:19:59.353Z,30.37
2018-12-07T00:22:29.154Z,31.13
2018-12-07T00:25:00.903Z,30.37
2018-12-07T00:27:31.747Z,29.17
2018-12-07T00:30:00.695Z,32.77
2018-12-07T00:32:32.916Z,27.13
2018-12-07T00:35:02.540Z,28.80
2018-12-07T00:37:34.362Z,30.03
2018-12-07T00:40:04.974Z,31.80
2018-12-07T00:42:37.050Z,38.57
2018-12-07T00:45:07.814Z,32.40
2018-12-07T00:47:38.161Z,30.77
2018-12-07T00:50:07.960Z,30.30
2018-12-07T00:52:38.747Z,31.43
2018-12-07T00:57:51.637Z,26.07
2018-12-07T01:00:21.923Z,28.77
2018-12-07T01:02:50.326Z,26.53
2018-12-07T01:05:21.631Z,21.23
2018-12-07T01:07:54.359Z,19.27
2018-12-07T01:10:28.517Z,20.40
2018-12-07T01:12:58.273Z,24.07
2018-12-07T01:15:28.615Z,19.07
2018-12-07T01:17:57.637Z,20.03
2018-12-07T01:20:29.323Z,21.10
2018-12-07T01:23:00.312Z,24.60
2018-12-07T01:25:30.901Z,21.73
2018-12-07T01:28:03.499Z,18.73
2018-12-07T01:30:33.385Z,20.50
2018-12-07T01:33:02.351Z,17.57
2018-12-07T01:35:34.746Z,16.50
2018-12-07T01:38:04.786Z,17.80
2018-12-07T01:40:33.760Z,16.53
2018-12-07T01:43:03.876Z,19.67
2018-12-07T01:45:33.938Z,17.97
2018-12-07T01:48:07.208Z,15.87
2018-12-07T01:50:35.876Z,15.20
2018-12-07T01:53:06.432Z,15.07
2018-12-07T01:55:35.210Z,16.53
2018-12-07T01:58:05.159Z,15.33
2018-12-07T02:00:35.528Z,18.07
2018-12-07T02:03:06.881Z,19.70
2018-12-07T02:05:36.717Z,14.83
2018-12-07T02:08:08.037Z,17.27
2018-12-07T02:10:40.262Z,17.57
2018-12-07T02:13:10.181Z,17.43
2018-12-07T02:15:38.951Z,18.47
2018-12-07T02:18:09.083Z,19.77
2018-12-07T02:20:37.687Z,23.57
2018-12-07T02:23:07.621Z,16.73
2018-12-07T02:25:36.003Z,19.80
2018-12-07T02:28:05.460Z,18.17
2018-12-07T02:30:34.929Z,25.20
2018-12-07T02:33:03.749Z,21.30
2018-12-07T02:35:32.259Z,22.13
2018-12-07T02:38:01.579Z,24.27
2018-12-07T02:40:29.967Z,20.70
2018-12-07T02:42:58.358Z,23.50
2018-12-07T02:45:27.468Z,21.13
2018-12-07T02:47:55.850Z,18.10
2018-12-07T02:50:24.494Z,18.23
2018-12-07T02:52:52.867Z,21.30
2018-12-07T02:55:23.181Z,24.00
2018-12-07T02:57:51.570Z,17.50
2018-12-07T03:00:20.198Z,18.70
2018-12-07T03:02:48.548Z,22.07
2018-12-07T03:05:17.020Z,18.90
2018-12-07T03:07:45.699Z,20.30
2018-12-07T03:10:14.599Z,16.17
2018-12-07T03:12:42.973Z,20.97
2018-12-07T03:15:12.895Z,25.97
2018-12-07T03:17:42.502Z,23.53
2018-12-07T03:20:11.904Z,18.50
2018-12-07T03:22:41.144Z,19.60
2018-12-07T03:25:10.348Z,22.00
2018-12-07T03:27:39.143Z,22.00
2018-12-07T03:30:08.890Z,18.37
2018-12-07T03:32:38.070Z,23.63
2018-12-07T03:35:06.961Z,22.23
2018-12-07T03:37:35.325Z,26.87
2018-12-07T03:40:04.607Z,25.97
2018-12-07T03:42:33.449Z,27.50
2018-12-07T03:45:03.236Z,27.67
2018-12-07T03:47:32.602Z,23.97
2018-12-07T03:50:01.001Z,25.87
2018-12-07T03:52:30.602Z,21.10
2018-12-07T03:54:58.994Z,19.07
2018-12-07T03:57:29.672Z,21.13
2018-12-07T04:00:05.113Z,21.17
2018-12-07T04:02:33.978Z,22.00
2018-12-07T04:05:02.795Z,24.80
2018-12-07T04:07:31.213Z,21.60
2018-12-07T04:10:00.559Z,23.50
2018-12-07T04:12:29.179Z,23.60
2018-12-07T04:14:58.545Z,25.20
2018-12-07T04:17:27.236Z,25.77
2018-12-07T04:19:56.396Z,23.97
2018-12-07T04:22:24.798Z,25.73
2018-12-07T04:24:54.301Z,26.23
2018-12-07T04:27:22.922Z,22.03
2018-12-07T04:29:53.358Z,26.40
2018-12-07T04:32:22.294Z,24.27
2018-12-07T04:34:52.410Z,30.60
2018-12-07T04:37:20.860Z,30.13
2018-12-07T04:39:49.528Z,31.33
2018-12-07T04:42:20.400Z,36.37
2018-12-07T04:44:49.371Z,32.20
2018-12-07T04:47:18.910Z,32.30
2018-12-07T04:49:47.365Z,35.83
2018-12-07T04:52:16.720Z,34.17
2018-12-07T04:54:45.720Z,30.23
2018-12-07T04:57:14.989Z,25.97
2018-12-07T04:59:44.617Z,34.10
2018-12-07T05:02:13.306Z,30.93
2018-12-07T05:04:43.979Z,30.37
2018-12-07T05:07:12.363Z,32.47
2018-12-07T05:09:42.231Z,30.23
2018-12-07T05:12:12.347Z,33.73
2018-12-07T05:14:46.329Z,30.27
2018-12-07T05:18:44.155Z,30.07
2018-12-07T05:21:13.327Z,26.10
2018-12-07T05:23:42.577Z,22.67
2018-12-07T05:26:12.823Z,29.00
2018-12-07T05:28:41.886Z,32.27
2018-12-07T05:31:10.274Z,24.97
2018-12-07T05:33:39.435Z,26.63
2018-12-07T05:36:10.051Z,29.00
2018-12-07T05:38:40.257Z,30.73
2018-12-07T05:41:08.751Z,27.67
2018-12-07T05:43:47.169Z,28.07
2018-12-07T05:46:15.565Z,27.33
2018-12-07T05:48:46.740Z,27.30
2018-12-07T05:51:16.900Z,29.57
2018-12-07T05:53:46.998Z,27.27
2018-12-07T05:56:17.778Z,33.27
2018-12-07T05:58:57.820Z,27.17
2018-12-07T06:01:28.928Z,32.00
2018-12-07T06:04:01.876Z,22.93
2018-12-07T06:06:36.279Z,24.47
2018-12-07T06:09:09.662Z,27.57
2018-12-07T06:11:40.213Z,30.47
2018-12-07T06:14:10.932Z,26.13
2018-12-07T06:16:40.586Z,31.30
2018-12-07T06:19:10.837Z,32.50
2018-12-07T06:21:43.824Z,30.43
2018-12-07T06:24:15.431Z,26.90
2018-12-07T06:26:43.804Z,25.20
2018-12-07T06:29:13.133Z,30.20
2018-12-07T06:31:41.797Z,25.67
2018-12-07T06:34:10.816Z,28.07
2018-12-07T06:36:39.274Z,26.43
2018-12-07T06:39:10.595Z,26.17
2018-12-07T06:41:41.063Z,21.77
2018-12-07T06:44:09.822Z,25.80
2018-12-07T06:46:40.712Z,24.27
2018-12-07T06:49:11.472Z,28.77
2018-12-07T06:51:43.020Z,26.17
2018-12-07T06:54:13.924Z,24.47
2018-12-07T06:56:42.800Z,31.73
2018-12-07T06:59:11.846Z,32.80
2018-12-07T07:01:40.593Z,27.03
2018-12-07T07:04:09.591Z,29.37
2018-12-07T07:06:38.270Z,28.93
2018-12-07T07:09:09.087Z,22.83
2018-12-07T07:11:38.046Z,31.27
2018-12-07T07:14:07.423Z,29.80
2018-12-07T07:16:36.857Z,32.20
2018-12-07T07:19:07.245Z,32.00
2018-12-07T07:21:36.361Z,33.43
2018-12-07T07:24:07.253Z,28.33
2018-12-07T07:26:37.603Z,27.70
2018-12-07T07:29:08.040Z,40.80
2018-12-07T07:31:43.467Z,34.20
2018-12-07T07:34:10.075Z,31.90
2018-12-07T07:36:39.144Z,34.13
2018-12-07T07:39:09.279Z,35.83
2018-12-07T07:41:38.850Z,27.77
2018-12-07T07:44:07.268Z,40.43
2018-12-07T07:46:36.512Z,34.13
2018-12-07T07:49:05.894Z,33.47
2018-12-07T07:51:35.292Z,28.73
2018-12-07T07:54:03.672Z,29.93
2018-12-07T07:56:34.931Z,30.10
2018-12-07T07:59:04.430Z,29.53
2018-12-07T08:01:35.221Z,32.47
2018-12-07T08:04:04.209Z,31.63
2018-12-07T08:06:33.165Z,24.50
2018-12-07T08:09:08.394Z,24.57
2018-12-07T08:11:38.627Z,27.50
2018-12-07T08:14:07.816Z,26.20
2018-12-07T08:16:37.375Z,25.90
2018-12-07T08:19:07.463Z,26.93
2018-12-07T08:21:36.171Z,24.27
2018-12-07T08:24:05.951Z,27.50
2018-12-07T08:26:34.729Z,29.87
2018-12-07T08:29:04.782Z,23.37
2018-12-07T08:31:37.299Z,26.77
2018-12-07T08:34:05.957Z,23.77
2018-12-07T08:36:36.211Z,31.17
2018-12-07T08:39:09.082Z,26.77
2018-12-07T08:41:38.641Z,21.13
2018-12-07T08:44:11.730Z,22.90
2018-12-07T08:46:42.602Z,26.23
2018-12-07T08:49:11.652Z,26.40
2018-12-07T08:51:40.728Z,23.20
2018-12-07T08:54:10.802Z,20.50
2018-12-07T08:56:40.906Z,26.40
2018-12-07T08:59:11.439Z,21.67
2018-12-07T09:01:40.323Z,22.30
2018-12-07T09:04:09.311Z,21.10
2018-12-07T09:06:39.291Z,26.27
2018-12-07T09:09:10.585Z,25.43
2018-12-07T09:11:39.214Z,23.27
2018-12-07T09:14:07.591Z,24.47
2018-12-07T09:16:37.045Z,17.10
2018-12-07T09:19:05.869Z,21.53
2018-12-07T09:21:36.143Z,26.10
2018-12-07T09:24:04.780Z,18.90
2018-12-07T09:26:34.572Z,21.83
2018-12-07T09:29:05.778Z,22.27
2018-12-07T09:31:37.127Z,19.33
2018-12-07T09:34:07.158Z,17.30
2018-12-07T09:36:37.476Z,19.57
2018-12-07T09:39:10.080Z,18.50
2018-12-07T09:41:47.828Z,17.37
2018-12-07T09:44:17.100Z,18.77
2018-12-07T09:46:46.894Z,15.67
2018-12-07T09:49:16.284Z,20.37
2018-12-07T09:51:45.390Z,13.40
2018-12-07T09:54:18.778Z,14.97
2018-12-07T09:56:48.194Z,16.70
2018-12-07T09:59:17.269Z,18.77
2018-12-07T10:01:46.042Z,14.23
2018-12-07T10:04:17.413Z,16.40
2018-12-07T10:06:46.998Z,13.93
2018-12-07T10:09:21.658Z,13.17
2018-12-07T10:11:51.430Z,18.07
2018-12-07T10:14:20.392Z,21.80
2018-12-07T10:16:50.099Z,15.53
2018-12-07T10:19:22.619Z,14.53
2018-12-07T10:21:53.342Z,16.33
2018-12-07T10:24:21.894Z,13.53
2018-12-07T10:26:52.122Z,12.90
2018-12-07T10:29:20.691Z,13.63
2018-12-07T10:31:50.855Z,12.40
2018-12-07T10:34:22.594Z,14.40
2018-12-07T10:36:54.672Z,11.03
2018-12-07T10:39:23.438Z,16.40
2018-12-07T10:41:55.984Z,12.83
2018-12-07T10:44:27.862Z,11.27
2018-12-07T10:46:58.025Z,14.97
2018-12-07T10:49:27.617Z,11.37
2018-12-07T10:51:56.245Z,15.20
2018-12-07T10:54:26.599Z,9.87
2018-12-07T10:56:55.902Z,8.10
2018-12-07T10:59:25.054Z,9.43
2018-12-07T11:01:59.657Z,9.07
2018-12-07T11:04:34.051Z,11.37
2018-12-07T11:07:07.991Z,10.10
2018-12-07T11:09:42.295Z,13.17
2018-12-07T11:12:16.650Z,11.57
2018-12-07T11:14:50.760Z,8.30
2018-12-07T11:17:24.633Z,8.47
2018-12-07T11:20:00.251Z,8.33
2018-12-07T11:22:36.219Z,9.80
2018-12-07T11:25:11.943Z,7.10
2018-12-07T11:27:45.655Z,6.90
2018-12-07T11:30:21.112Z,5.27
2018-12-07T11:32:55.104Z,7.43
2018-12-07T11:35:28.045Z,4.60
2018-12-07T11:37:58.070Z,3.90
2018-12-07T11:40:28.628Z,4.93
2018-12-07T11:42:57.594Z,7.33
2018-12-07T11:45:25.997Z,9.70
2018-12-07T11:47:55.198Z,8.83
2018-12-07T11:50:25.287Z,6.17
2018-12-07T11:52:54.902Z,10.10
2018-12-07T11:55:24.026Z,5.67
2018-12-07T11:57:59.344Z,8.27
2018-12-07T12:00:28.458Z,8.00
2018-12-07T12:02:57.956Z,4.97
2018-12-07T12:05:26.595Z,7.30
2018-12-07T12:07:55.198Z,10.70
2018-12-07T12:10:24.555Z,9.07
2018-12-07T12:12:55.016Z,8.53
2018-12-07T12:15:26.501Z,7.07
2018-12-07T12:18:00.069Z,6.33
2018-12-07T12:20:29.622Z,9.23
2018-12-07T12:23:00.630Z,5.30
2018-12-07T12:25:28.996Z,6.23
2018-12-07T12:28:28.039Z,8.90
2018-12-07T12:30:58.363Z,7.87
2018-12-07T12:33:28.053Z,8.07
2018-12-07T12:35:57.843Z,6.60
2018-12-07T12:38:27.638Z,6.83
2018-12-07T12:40:56.251Z,5.60
2018-12-07T12:43:25.682Z,7.33
2018-12-07T12:46:02.658Z,9.13
2018-12-07T12:48:31.983Z,7.37
2018-12-07T12:51:00.595Z,6.97
2018-12-07T12:53:29.691Z,8.13
2018-12-07T12:56:00.649Z,6.67
2018-12-07T12:58:30.738Z,8.07
2018-12-07T13:00:59.755Z,6.63
2018-12-07T13:03:28.099Z,12.30
2018-12-07T13:05:56.505Z,11.10
2018-12-07T13:08:24.899Z,6.63
2018-12-07T13:10:53.267Z,7.73
2018-12-07T13:13:22.024Z,6.33
2018-12-07T13:15:50.376Z,6.53
2018-12-07T13:18:18.755Z,7.13
2018-12-07T13:20:47.376Z,5.97
2018-12-07T13:23:16.522Z,6.30
2018-12-07T13:25:44.910Z,4.70
2018-12-07T13:28:13.305Z,8.83
2018-12-07T13:30:41.935Z,3.87
2018-12-07T13:33:10.316Z,6.13
2018-12-07T13:35:38.678Z,8.20
2018-12-07T13:38:07.043Z,6.67
2018-12-07T13:40:35.478Z,5.37
2018-12-07T13:43:04.604Z,4.43
2018-12-07T13:45:33.273Z,12.47
2018-12-07T13:48:02.153Z,7.50
2018-12-07T13:50:36.144Z,9.73
2018-12-07T13:53:05.954Z,7.10
2018-12-07T13:55:37.092Z,8.93
2018-12-07T13:58:07.595Z,6.30
2018-12-07T14:00:36.796Z,6.07
2018-12-07T14:03:06.359Z,10.67
2018-12-07T14:05:34.981Z,7.53
2018-12-07T14:08:04.403Z,11.13
2018-12-07T14:10:33.290Z,11.43
2018-12-07T14:13:03.371Z,9.20
2018-12-07T14:15:31.937Z,9.20
2018-12-07T14:18:00.391Z,11.43
2018-12-07T14:20:31.243Z,7.00
2018-12-07T14:23:00.665Z,10.40
2018-12-07T14:25:29.398Z,15.10
2018-12-07T14:27:58.177Z,6.30
2018-12-07T14:30:27.494Z,12.07
2018-12-07T14:32:56.422Z,13.17
2018-12-07T14:35:25.701Z,8.87
2018-12-07T14:37:55.252Z,9.40
2018-12-07T14:40:25.040Z,8.47
2018-12-07T14:42:53.826Z,13.87
2018-12-07T14:45:23.161Z,6.00
2018-12-07T14:47:51.970Z,9.47
2018-12-07T14:50:20.548Z,6.07
2018-12-07T14:53:53.160Z,10.40
2018-12-07T14:56:21.990Z,11.77
2018-12-07T14:58:50.538Z,9.83
2018-12-07T15:01:19.012Z,11.43
2018-12-07T15:03:48.370Z,19.10
2018-12-07T15:06:16.833Z,15.60
2018-12-07T15:08:45.421Z,13.20
2018-12-07T15:11:14.152Z,20.40
2018-12-07T15:13:42.820Z,12.20
2018-12-07T15:17:41.396Z,9.63
2018-12-07T15:20:10.684Z,11.23
2018-12-07T15:22:39.627Z,25.57
2018-12-07T15:25:10.021Z,30.47
2018-12-07T15:27:41.432Z,34.13
2018-12-07T15:30:10.884Z,30.23
2018-12-07T15:32:39.551Z,17.67
2018-12-07T15:35:10.407Z,10.63
2018-12-07T15:37:39.717Z,20.80
2018-12-07T15:40:10.353Z,14.93
2018-12-07T15:42:40.051Z,13.83
2018-12-07T15:45:09.806Z,11.53
2018-12-07T15:47:38.604Z,9.90
2018-12-07T15:50:09.045Z,15.00
2018-12-07T15:52:37.807Z,9.77
2018-12-07T15:55:06.841Z,15.00
2018-12-07T15:57:35.598Z,14.83
2018-12-07T16:00:05.863Z,15.63
2018-12-07T16:02:36.368Z,14.13
2018-12-07T16:05:06.043Z,19.60
2018-12-07T16:07:34.710Z,17.00
2018-12-07T16:10:05.075Z,10.70
2018-12-07T16:12:34.500Z,15.50
2018-12-07T16:15:04.010Z,18.87
2018-12-07T16:17:32.762Z,26.23
2018-12-07T16:20:01.662Z,20.07
2018-12-07T16:22:32.587Z,20.30
2018-12-07T16:25:01.653Z,20.87
2018-12-07T16:27:32.531Z,16.37
2018-12-07T16:30:02.553Z,20.13
2018-12-07T16:32:31.667Z,16.63
2018-12-07T16:35:00.862Z,16.27
2018-12-07T16:37:30.504Z,21.00
2018-12-07T16:39:59.601Z,20.70
2018-12-07T16:42:29.664Z,14.17
2018-12-07T16:44:58.999Z,25.53
2018-12-07T16:47:32.186Z,15.23
2018-12-07T16:50:02.930Z,20.13
2018-12-07T16:52:32.329Z,19.10
2018-12-07T16:55:01.165Z,16.87
2018-12-07T16:57:31.886Z,20.53
2018-12-07T17:00:01.621Z,21.03
2018-12-07T17:02:30.610Z,20.73
2018-12-07T17:05:02.076Z,18.70
2018-12-07T17:07:31.674Z,27.77
2018-12-07T17:10:00.273Z,30.83
2018-12-07T17:12:28.956Z,30.63
2018-12-07T17:14:58.644Z,20.83
2018-12-07T17:17:27.236Z,26.20
2018-12-07T17:19:57.787Z,28.17
2018-12-07T17:22:26.982Z,36.50
2018-12-07T17:24:55.798Z,24.63
2018-12-07T17:27:24.511Z,30.70
2018-12-07T17:29:54.171Z,36.77
2018-12-07T17:32:23.331Z,33.90
2018-12-07T17:34:53.699Z,29.97
2018-12-07T17:37:22.956Z,17.40
2018-12-07T17:39:51.906Z,22.40
2018-12-07T17:42:20.508Z,21.00
2018-12-07T17:44:50.097Z,24.63
2018-12-07T17:47:20.111Z,25.43
2018-12-07T17:49:48.783Z,36.70
2018-12-07T17:52:18.694Z,26.23
2018-12-07T17:54:47.222Z,30.40
2018-12-07T17:57:16.069Z,23.77
2018-12-07T17:59:45.367Z,38.03
2018-12-07T18:02:14.423Z,26.17
2018-12-07T18:04:42.909Z,23.20
2018-12-07T18:07:13.408Z,23.43
2018-12-07T18:09:44.149Z,15.03
2018-12-07T18:12:13.670Z,20.97
2018-12-07T18:14:44.295Z,12.23
2018-12-07T18:17:12.700Z,17.50
2018-12-07T18:19:41.762Z,17.50
2018-12-07T18:22:11.999Z,18.63
2018-12-07T18:24:42.220Z,19.30
2018-12-07T18:27:10.882Z,5.77
2018-12-07T18:29:41.678Z,24.17
2018-12-07T18:32:11.678Z,20.50
2018-12-07T18:34:41.299Z,25.57
2018-12-07T18:37:10.789Z,17.73
2018-12-07T18:39:40.457Z,14.87
2018-12-07T18:42:10.298Z,22.43
2018-12-07T18:44:40.413Z,19.07
2018-12-07T18:47:09.510Z,18.40
2018-12-07T18:49:38.898Z,33.53
2018-12-07T18:52:08.274Z,16.27
2018-12-07T18:54:37.822Z,21.87
2018-12-07T18:57:07.054Z,20.10
2018-12-07T18:59:37.510Z,21.77
2018-12-07T19:02:08.099Z,20.07
2018-12-07T19:04:37.641Z,17.20
2018-12-07T19:07:06.362Z,18.00
2018-12-07T19:09:34.794Z,23.73
2018-12-07T19:12:03.685Z,17.30
2018-12-07T19:14:32.588Z,21.40
2018-12-07T19:17:02.754Z,22.17
2018-12-07T19:22:11.452Z,18.00
2018-12-07T19:24:40.598Z,18.77
2018-12-07T19:27:10.127Z,20.90
2018-12-07T19:29:38.795Z,22.00
2018-12-07T19:32:08.102Z,18.07
2018-12-07T19:34:36.931Z,20.63
2018-12-07T19:37:05.670Z,22.17
2018-12-07T19:39:34.916Z,13.33
2018-12-07T19:42:04.417Z,17.53
2018-12-07T19:44:33.876Z,21.53
2018-12-07T19:47:04.360Z,19.80
2018-12-07T19:49:33.999Z,27.37
2018-12-07T19:52:03.897Z,12.90
2018-12-07T19:54:32.499Z,7.80
2018-12-07T19:57:01.855Z,26.03
2018-12-07T19:59:30.686Z,14.37
2018-12-07T20:02:00.721Z,10.17
2018-12-07T20:04:29.454Z,17.80
2018-12-07T20:06:59.090Z,12.93
2018-12-07T20:09:27.838Z,26.73
2018-12-07T20:11:56.570Z,22.77
2018-12-07T20:14:25.478Z,17.77
2018-12-07T20:16:54.902Z,17.20
2018-12-07T20:19:23.556Z,15.43
2018-12-07T20:21:52.218Z,20.70
2018-12-07T20:24:21.482Z,10.37
2018-12-07T20:26:50.275Z,27.40
2018-12-07T20:29:19.228Z,14.70
2018-12-07T20:31:47.731Z,15.03
2018-12-07T20:34:16.403Z,15.33
2018-12-07T20:36:44.855Z,11.97
2018-12-07T20:39:14.708Z,7.37
2018-12-07T20:41:45.557Z,8.13
2018-12-07T20:44:14.198Z,23.60
2018-12-07T20:46:44.320Z,18.50
2018-12-07T20:49:14.666Z,12.83
2018-12-07T20:51:44.073Z,10.10
2018-12-07T20:54:12.878Z,16.00
2018-12-07T20:56:42.320Z,10.60
2018-12-07T20:59:11.597Z,20.17
2018-12-07T21:01:51.603Z,9.77
2018-12-07T21:04:33.530Z,18.53
2018-12-07T21:08:12.170Z,17.00
2018-12-07T21:11:25.649Z,20.03
2018-12-07T21:14:02.579Z,18.87
2018-12-07T21:17:20.974Z,20.90
2018-12-07T21:19:59.530Z,15.37
2018-12-07T21:22:29.181Z,21.97
2018-12-07T21:24:58.696Z,18.17
2018-12-07T21:27:28.855Z,6.43
2018-12-07T21:31:03.358Z,17.40
2018-12-07T21:34:40.947Z,24.20
2018-12-07T21:37:09.575Z,15.93
2018-12-07T21:39:43.092Z,10.93
2018-12-07T21:42:12.170Z,11.10
2018-12-07T21:44:40.580Z,14.43
2018-12-07T21:47:08.989Z,22.60
2018-12-07T21:49:44.705Z,9.20
2018-12-07T21:52:19.566Z,7.10
2018-12-07T21:54:49.015Z,19.00
2018-12-07T21:57:18.029Z,20.33
2018-12-07T21:59:46.559Z,10.03
2018-12-07T22:02:15.386Z,15.00
2018-12-07T22:04:45.676Z,14.60
2018-12-07T22:07:15.154Z,11.73
2018-12-07T22:09:43.958Z,23.93
2018-12-07T22:12:13.562Z,14.37
2018-12-07T22:14:42.455Z,16.83
2018-12-07T22:17:12.452Z,25.00
2018-12-07T22:19:41.330Z,17.87
2018-12-07T22:22:10.592Z,21.43
2018-12-07T22:24:40.734Z,18.30
2018-12-07T22:27:10.858Z,12.10
2018-12-07T22:29:41.045Z,30.43
2018-12-07T22:32:09.934Z,17.70
2018-12-07T22:34:39.059Z,26.97
2018-12-07T22:37:08.947Z,13.70
2018-12-07T22:39:37.584Z,18.90
2018-12-07T22:42:06.732Z,23.47
2018-12-07T22:44:35.335Z,32.73
2018-12-07T22:47:06.798Z,12.53
2018-12-07T22:49:36.954Z,23.43
2018-12-07T22:52:07.983Z,12.63
2018-12-07T22:54:37.685Z,23.83
2018-12-07T22:57:06.929Z,22.10
2018-12-07T22:59:35.751Z,21.53
2018-12-07T23:02:04.907Z,18.70
2018-12-07T23:04:36.240Z,25.57
2018-12-07T23:07:06.867Z,16.00
2018-12-07T23:09:36.512Z,15.80
2018-12-07T23:12:05.340Z,33.03
2018-12-07T23:14:34.490Z,18.70
2018-12-07T23:17:02.915Z,11.53
2018-12-07T23:19:35.046Z,16.47
2018-12-07T23:22:05.815Z,12.93
2018-12-07T23:24:34.190Z,13.40
2018-12-07T23:27:03.736Z,21.40
2018-12-07T23:29:32.818Z,17.53
2018-12-07T23:32:01.480Z,21.00
2018-12-07T23:34:29.865Z,20.70
2018-12-07T23:36:59.538Z,19.10
2018-12-07T23:39:28.248Z,27.67
2018-12-07T23:41:57.947Z,28.03
2018-12-07T23:44:26.339Z,12.47
2018-12-07T23:46:54.706Z,16.73
2018-12-07T23:49:23.915Z,13.97
2018-12-07T23:51:52.962Z,16.60
2018-12-07T23:54:23.985Z,21.50
2018-12-07T23:56:53.690Z,19.43
2018-12-07T23:59:22.066Z,9.97
